createdAt,value
2019-03-20T00:01:17.048Z,99.90
2019-03-20T00:03:52.891Z,99.90
2019-03-20T00:06:25.039Z,99.90
2019-03-20T00:09:00.028Z,99.90
2019-03-20T00:11:30.592Z,99.90
2019-03-20T00:14:01.128Z,99.90
2019-03-20T00:16:32.666Z,99.90
2019-03-20T00:19:03.287Z,99.90
2019-03-20T00:21:37.850Z,99.90
2019-03-20T00:24:09.802Z,99.90
2019-03-20T00:26:43.203Z,99.90
2019-03-20T00:29:13.295Z,99.90
2019-03-20T00:31:44.293Z,99.90
2019-03-20T00:34:17.861Z,99.90
2019-03-20T00:36:49.661Z,99.90
2019-03-20T00:39:26.103Z,99.90
2019-03-20T00:41:56.279Z,99.90
2019-03-20T00:44:26.887Z,99.90
2019-03-20T00:46:57.911Z,99.90
2019-03-20T00:49:28.574Z,99.90
2019-03-20T00:51:59.029Z,99.90
2019-03-20T00:54:33.593Z,99.90
2019-03-20T00:57:06.052Z,99.90
2019-03-20T00:59:36.737Z,99.90
2019-03-20T01:02:08.252Z,99.90
2019-03-20T01:04:39.509Z,99.90
2019-03-20T01:07:10.339Z,99.90
2019-03-20T01:09:41.451Z,99.90
2019-03-20T01:12:12.349Z,99.90
2019-03-20T01:14:42.840Z,99.90
2019-03-20T01:17:14.404Z,99.90
2019-03-20T01:19:45.010Z,99.90
2019-03-20T01:22:15.637Z,99.90
2019-03-20T01:24:46.244Z,99.90
2019-03-20T01:27:18.560Z,99.90
2019-03-20T01:29:49.441Z,99.90
2019-03-20T01:32:20.093Z,99.90
2019-03-20T01:34:52.349Z,99.90
2019-03-20T01:37:23.097Z,99.90
2019-03-20T01:39:53.495Z,99.90
2019-03-20T01:42:24.292Z,99.90
2019-03-20T01:44:57.209Z,99.90
2019-03-20T01:47:27.769Z,99.90
2019-03-20T01:49:58.812Z,99.90
2019-03-20T01:52:32.797Z,99.90
2019-03-20T01:55:06.401Z,99.90
2019-03-20T01:57:37.020Z,99.90
2019-03-20T02:00:10.472Z,99.90
2019-03-20T02:02:41.474Z,99.90
2019-03-20T02:05:12.287Z,99.90
2019-03-20T02:07:43.786Z,99.90
2019-03-20T02:10:20.576Z,99.90
2019-03-20T02:12:55.168Z,99.90
2019-03-20T02:15:25.611Z,99.90
2019-03-20T02:18:01.481Z,99.90
2019-03-20T02:20:32.022Z,99.90
2019-03-20T02:23:03.803Z,99.90
2019-03-20T02:25:35.075Z,99.90
2019-03-20T02:28:05.716Z,99.90
2019-03-20T02:30:36.359Z,99.90
2019-03-20T02:33:10.379Z,99.90
2019-03-20T02:35:51.393Z,99.90
2019-03-20T02:38:15.271Z,99.90
2019-03-20T02:40:45.900Z,99.90
2019-03-20T02:43:16.936Z,99.90
2019-03-20T02:45:47.476Z,99.90
2019-03-20T02:48:18.761Z,99.90
2019-03-20T02:50:49.549Z,99.90
2019-03-20T02:53:21.751Z,99.90
2019-03-20T02:55:52.311Z,99.90
2019-03-20T02:58:23.037Z,99.90
2019-03-20T03:00:54.100Z,99.90
2019-03-20T03:03:24.839Z,99.90
2019-03-20T03:06:06.613Z,99.90
2019-03-20T03:08:37.072Z,99.90
2019-03-20T03:11:07.528Z,99.90
2019-03-20T03:13:39.383Z,99.90
2019-03-20T03:16:09.967Z,99.90
2019-03-20T03:18:42.785Z,99.90
2019-03-20T03:21:14.037Z,99.90
2019-03-20T03:23:44.927Z,99.90
2019-03-20T03:26:17.413Z,99.90
2019-03-20T03:28:48.034Z,99.90
2019-03-20T03:31:18.658Z,99.90
2019-03-20T03:33:49.266Z,99.90
2019-03-20T03:36:27.147Z,99.90
2019-03-20T03:38:53.337Z,99.90
2019-03-20T03:41:24.808Z,99.90
2019-03-20T03:43:55.915Z,99.90
2019-03-20T03:46:26.452Z,99.90
2019-03-20T03:48:58.602Z,99.90
2019-03-20T03:51:29.347Z,99.90
2019-03-20T03:53:59.979Z,99.90
2019-03-20T03:56:33.659Z,99.90
2019-03-20T03:59:05.368Z,99.90
2019-03-20T04:01:36.364Z,99.90
2019-03-20T04:04:07.149Z,99.90
2019-03-20T04:06:37.770Z,99.90
2019-03-20T04:09:09.014Z,99.90
2019-03-20T04:11:41.407Z,99.90
2019-03-20T04:14:12.768Z,99.90
2019-03-20T04:16:44.168Z,99.90
2019-03-20T04:19:16.156Z,99.90
2019-03-20T04:21:46.738Z,99.90
2019-03-20T04:24:19.664Z,99.90
2019-03-20T04:26:50.418Z,99.90
2019-03-20T04:29:21.428Z,99.90
2019-03-20T04:31:52.027Z,99.90
2019-03-20T04:34:22.580Z,99.90
2019-03-20T04:36:53.190Z,99.90
2019-03-20T04:39:27.221Z,99.90
2019-03-20T04:41:57.780Z,99.90
2019-03-20T04:44:28.297Z,99.90
2019-03-20T04:47:00.042Z,99.90
2019-03-20T04:49:34.254Z,99.90
2019-03-20T04:52:05.229Z,99.90
2019-03-20T04:54:39.233Z,99.90
2019-03-20T04:57:09.908Z,99.90
2019-03-20T04:59:41.568Z,99.90
2019-03-20T05:02:12.527Z,99.90
2019-03-20T05:04:43.919Z,99.90
2019-03-20T05:07:14.911Z,99.90
2019-03-20T05:09:45.398Z,99.90
2019-03-20T05:34:38.589Z,99.90
2019-03-20T05:37:10.840Z,99.90
2019-03-20T05:39:41.800Z,99.90
2019-03-20T05:42:12.372Z,99.90
2019-03-20T05:44:42.963Z,99.90
2019-03-20T05:47:13.624Z,99.90
2019-03-20T05:49:45.635Z,99.90
2019-03-20T05:52:16.573Z,99.90
2019-03-20T05:54:47.238Z,99.90
2019-03-20T05:57:17.804Z,99.90
2019-03-20T05:59:51.874Z,99.90
2019-03-20T06:02:22.451Z,99.90
2019-03-20T06:04:52.929Z,98.10
2019-03-20T06:07:24.222Z,93.90
2019-03-20T06:09:54.646Z,90.00
2019-03-20T06:12:25.112Z,83.20
2019-03-20T06:14:55.722Z,76.80
2019-03-20T06:17:29.931Z,73.10
2019-03-20T06:20:01.677Z,71.60
2019-03-20T06:22:32.399Z,68.50
2019-03-20T06:25:03.017Z,65.70
2019-03-20T06:27:33.469Z,64.10
2019-03-20T06:30:06.788Z,63.90
2019-03-20T06:32:42.949Z,62.40
2019-03-20T06:35:14.677Z,62.20
2019-03-20T06:37:45.256Z,60.90
2019-03-20T06:40:18.157Z,61.90
2019-03-20T06:42:48.621Z,59.70
2019-03-20T06:45:20.913Z,57.90
2019-03-20T06:47:52.217Z,56.00
2019-03-20T06:50:23.986Z,56.50
2019-03-20T06:52:54.472Z,56.60
2019-03-20T06:55:25.459Z,56.80
2019-03-20T06:57:56.929Z,56.00
2019-03-20T07:00:53.636Z,55.10
2019-03-20T07:03:52.982Z,53.50
2019-03-20T07:06:33.469Z,52.80
2019-03-20T07:09:35.610Z,51.60
2019-03-20T07:12:06.246Z,51.00
2019-03-20T07:14:36.814Z,50.20
2019-03-20T07:17:07.371Z,49.80
2019-03-20T07:19:38.818Z,49.00
2019-03-20T07:22:09.277Z,47.80
2019-03-20T07:24:39.717Z,47.30
2019-03-20T07:27:10.329Z,45.60
2019-03-20T07:29:40.980Z,43.60
2019-03-20T07:32:11.422Z,42.60
2019-03-20T07:37:43.368Z,41.50
2019-03-20T07:40:14.473Z,42.30
2019-03-20T07:42:48.395Z,41.50
2019-03-20T07:45:19.117Z,41.40
2019-03-20T07:47:49.519Z,41.30
2019-03-20T07:50:20.201Z,43.40
2019-03-20T07:52:50.595Z,44.00
2019-03-20T07:55:21.185Z,43.30
2019-03-20T07:57:51.692Z,44.30
2019-03-20T08:00:22.327Z,43.40
2019-03-20T08:02:52.967Z,43.80
2019-03-20T08:05:29.196Z,42.60
2019-03-20T08:08:06.415Z,44.30
2019-03-20T08:10:29.583Z,43.40
2019-03-20T08:12:59.982Z,41.40
2019-03-20T08:15:30.992Z,41.80
2019-03-20T08:18:01.488Z,42.20
2019-03-20T08:20:32.613Z,42.10
2019-03-20T08:23:02.992Z,42.40
2019-03-20T08:25:33.466Z,41.90
2019-03-20T08:28:04.026Z,41.70
2019-03-20T08:30:35.309Z,43.30
2019-03-20T08:33:05.867Z,43.20
2019-03-20T08:35:37.292Z,42.50
2019-03-20T08:38:17.733Z,41.30
2019-03-20T08:40:41.191Z,40.50
2019-03-20T08:43:11.816Z,40.30
2019-03-20T08:45:42.331Z,38.80
2019-03-20T08:48:12.869Z,40.60
2019-03-20T08:50:45.731Z,40.40
2019-03-20T08:53:16.370Z,40.10
2019-03-20T08:55:47.036Z,40.10
2019-03-20T08:58:17.836Z,40.30
2019-03-20T09:00:48.679Z,40.80
2019-03-20T09:03:19.168Z,41.70
2019-03-20T09:05:49.836Z,41.70
2019-03-20T09:08:28.856Z,40.20
2019-03-20T09:10:53.791Z,40.20
2019-03-20T09:13:24.394Z,40.10
2019-03-20T09:15:55.058Z,40.00
2019-03-20T09:18:25.492Z,40.10
2019-03-20T09:20:55.976Z,40.30
2019-03-20T09:23:26.539Z,42.10
2019-03-20T09:25:57.089Z,41.40
2019-03-20T09:28:27.549Z,39.80
2019-03-20T09:30:58.151Z,41.10
2019-03-20T09:33:28.622Z,41.10
2019-03-20T09:36:01.357Z,40.00
2019-03-20T09:41:28.310Z,40.70
2019-03-20T09:44:00.032Z,41.40
2019-03-20T09:46:31.066Z,41.20
2019-03-20T09:49:01.820Z,41.60
2019-03-20T09:51:36.031Z,40.90
2019-03-20T09:54:06.999Z,40.90
2019-03-20T09:56:37.520Z,41.70
2019-03-20T09:59:08.019Z,41.30
2019-03-20T10:01:38.570Z,40.60
2019-03-20T10:04:12.554Z,40.00
2019-03-20T10:06:43.036Z,41.50
2019-03-20T10:09:13.641Z,40.80
2019-03-20T10:11:44.765Z,41.10
2019-03-20T10:14:17.578Z,42.10
2019-03-20T10:16:48.823Z,40.90
2019-03-20T10:19:20.399Z,40.10
2019-03-20T10:21:51.999Z,40.40
2019-03-20T10:24:29.001Z,40.70
2019-03-20T10:26:59.609Z,40.70
2019-03-20T10:29:30.211Z,40.30
2019-03-20T10:32:01.256Z,40.70
2019-03-20T10:34:39.341Z,40.60
2019-03-20T10:37:05.538Z,40.80
2019-03-20T10:39:37.762Z,40.20
2019-03-20T10:42:09.229Z,40.20
2019-03-20T10:44:39.864Z,41.00
2019-03-20T10:47:12.823Z,41.60
2019-03-20T10:49:46.170Z,41.70
2019-03-20T10:52:17.249Z,39.80
2019-03-20T10:54:48.428Z,41.20
2019-03-20T10:57:21.901Z,42.20
2019-03-20T10:59:53.921Z,40.80
2019-03-20T11:02:24.601Z,41.50
2019-03-20T11:04:57.722Z,41.50
2019-03-20T11:07:27.918Z,41.00
2019-03-20T11:10:02.049Z,41.30
2019-03-20T11:12:34.131Z,41.50
2019-03-20T11:15:09.934Z,40.30
2019-03-20T11:17:41.138Z,41.10
2019-03-20T11:20:18.196Z,41.00
2019-03-20T11:22:49.010Z,41.00
2019-03-20T11:25:24.405Z,40.00
2019-03-20T11:27:55.496Z,40.80
2019-03-20T11:30:31.292Z,40.80
2019-03-20T11:33:02.137Z,39.90
2019-03-20T11:35:33.071Z,40.50
2019-03-20T11:38:03.783Z,39.20
2019-03-20T11:40:39.910Z,39.60
2019-03-20T11:43:11.917Z,40.20
2019-03-20T11:45:42.509Z,39.70
2019-03-20T11:48:13.108Z,39.60
2019-03-20T11:50:46.738Z,39.80
2019-03-20T11:53:17.341Z,40.20
2019-03-20T11:55:48.627Z,39.70
2019-03-20T11:58:19.363Z,40.40
2019-03-20T12:00:50.011Z,42.10
2019-03-20T12:03:21.907Z,42.10
2019-03-20T12:05:52.641Z,40.10
2019-03-20T12:08:23.380Z,39.30
2019-03-20T12:10:54.199Z,40.70
2019-03-20T12:13:25.371Z,38.80
2019-03-20T12:15:55.904Z,38.90
2019-03-20T12:18:29.560Z,39.80
2019-03-20T12:21:00.702Z,39.30
2019-03-20T12:23:33.738Z,39.10
2019-03-20T12:26:05.107Z,39.30
2019-03-20T12:28:35.948Z,39.20
2019-03-20T12:31:07.739Z,39.30
2019-03-20T12:33:38.658Z,39.50
2019-03-20T12:36:09.367Z,39.80
2019-03-20T12:38:40.175Z,39.00
2019-03-20T12:41:11.707Z,38.90
2019-03-20T12:43:45.468Z,38.20
2019-03-20T12:46:16.768Z,38.90
2019-03-20T12:48:47.717Z,39.20
2019-03-20T12:51:22.559Z,39.70
2019-03-20T12:53:54.296Z,39.60
2019-03-20T12:56:25.383Z,39.10
2019-03-20T12:58:55.898Z,39.40
2019-03-20T13:01:26.508Z,39.50
2019-03-20T13:03:57.554Z,38.40
2019-03-20T13:06:28.566Z,38.80
2019-03-20T13:08:59.334Z,38.80
2019-03-20T13:11:31.003Z,39.70
2019-03-20T13:14:02.244Z,38.10
2019-03-20T13:16:32.884Z,38.60
2019-03-20T13:19:05.046Z,39.10
2019-03-20T13:21:36.264Z,38.80
2019-03-20T13:24:08.800Z,39.20
2019-03-20T13:26:39.954Z,38.80
2019-03-20T13:29:11.873Z,39.70
2019-03-20T13:31:42.452Z,40.40
2019-03-20T13:34:16.934Z,40.90
2019-03-20T13:36:48.040Z,39.90
2019-03-20T13:39:18.651Z,39.00
2019-03-20T13:41:52.519Z,39.80
2019-03-20T13:44:24.978Z,39.10
2019-03-20T13:46:55.577Z,39.40
2019-03-20T13:49:26.344Z,40.10
2019-03-20T13:51:57.076Z,39.60
2019-03-20T13:54:31.932Z,39.80
2019-03-20T13:57:02.637Z,40.50
2019-03-20T13:59:33.661Z,40.20
2019-03-20T14:02:06.814Z,40.70
2019-03-20T14:04:37.096Z,40.80
2019-03-20T14:07:07.769Z,40.70
2019-03-20T14:09:38.239Z,40.30
2019-03-20T14:12:08.879Z,40.40
2019-03-20T14:14:39.639Z,41.10
2019-03-20T14:17:10.451Z,40.70
2019-03-20T14:19:41.249Z,40.20
2019-03-20T14:22:12.072Z,41.20
2019-03-20T14:24:44.668Z,42.00
2019-03-20T14:27:15.507Z,42.10
2019-03-20T14:29:46.164Z,41.70
2019-03-20T14:32:17.456Z,41.70
2019-03-20T14:34:48.064Z,41.80
2019-03-20T14:37:19.078Z,41.10
2019-03-20T14:39:50.107Z,41.60
2019-03-20T14:42:20.667Z,41.40
2019-03-20T14:44:53.604Z,41.60
2019-03-20T14:47:24.583Z,42.10
2019-03-20T14:50:09.308Z,42.10
2019-03-20T14:52:40.154Z,42.30
2019-03-20T14:55:15.019Z,42.50
2019-03-20T14:57:45.696Z,42.40
2019-03-20T15:00:25.255Z,43.20
2019-03-20T15:03:17.726Z,43.40
2019-03-20T15:05:51.503Z,43.70
2019-03-20T15:08:21.162Z,44.50
2019-03-20T15:10:51.989Z,44.70
2019-03-20T15:13:23.230Z,44.90
2019-03-20T15:16:07.503Z,44.30
2019-03-20T15:18:40.660Z,44.30
2019-03-20T15:21:10.409Z,44.40
2019-03-20T15:23:41.639Z,45.00
2019-03-20T15:26:12.689Z,45.20
2019-03-20T15:28:43.356Z,45.20
2019-03-20T15:31:14.347Z,45.10
2019-03-20T15:33:45.588Z,44.70
2019-03-20T15:36:16.230Z,45.50
2019-03-20T15:38:47.206Z,45.30
2019-03-20T15:41:17.844Z,45.20
2019-03-20T15:43:48.601Z,45.50
2019-03-20T15:46:21.868Z,45.30
2019-03-20T15:48:52.464Z,45.70
2019-03-20T15:51:26.754Z,45.60
2019-03-20T15:53:57.425Z,45.70
2019-03-20T15:56:28.639Z,45.40
2019-03-20T15:58:59.331Z,46.10
2019-03-20T16:01:30.628Z,46.30
2019-03-20T16:04:01.211Z,46.50
2019-03-20T16:06:31.875Z,47.00
2019-03-20T16:09:02.931Z,47.60
2019-03-20T16:11:33.684Z,47.90
2019-03-20T16:14:09.976Z,47.90
2019-03-20T16:16:43.806Z,48.00
2019-03-20T16:19:14.667Z,48.00
2019-03-20T16:21:45.400Z,47.90
2019-03-20T16:24:16.036Z,48.20
2019-03-20T16:26:47.118Z,48.20
2019-03-20T16:29:20.774Z,47.60
2019-03-20T16:31:50.927Z,48.20
2019-03-20T16:34:25.619Z,48.90
2019-03-20T16:36:56.848Z,49.00
2019-03-20T16:39:27.430Z,49.00
2019-03-20T16:41:59.034Z,49.40
2019-03-20T16:44:30.772Z,49.60
2019-03-20T16:47:02.335Z,49.60
2019-03-20T16:49:32.909Z,49.60
2019-03-20T16:52:04.551Z,49.70
2019-03-20T16:54:37.520Z,49.60
2019-03-20T16:57:10.109Z,50.00
2019-03-20T16:59:41.267Z,50.60
2019-03-20T17:02:12.192Z,50.40
2019-03-20T17:04:42.775Z,50.50
2019-03-20T17:13:15.143Z,51.20
2019-03-20T17:15:46.943Z,51.80
2019-03-20T17:18:18.045Z,52.70
2019-03-20T17:20:52.133Z,53.60
2019-03-20T17:23:22.965Z,54.70
2019-03-20T17:25:53.644Z,55.30
2019-03-20T17:28:24.448Z,55.20
2019-03-20T17:30:57.642Z,55.20
2019-03-20T17:33:27.519Z,54.90
2019-03-20T17:35:58.666Z,55.10
2019-03-20T17:38:30.691Z,55.30
2019-03-20T17:41:02.242Z,55.60
2019-03-20T17:43:33.577Z,55.90
2019-03-20T17:46:04.701Z,56.40
2019-03-20T17:48:36.186Z,55.70
2019-03-20T17:51:10.692Z,56.30
2019-03-20T17:53:41.886Z,56.60
2019-03-20T17:56:15.966Z,57.20
2019-03-20T17:58:46.567Z,57.00
2019-03-20T18:01:17.696Z,57.30
2019-03-20T18:03:49.375Z,58.30
2019-03-20T18:06:20.023Z,57.70
2019-03-20T18:11:25.517Z,58.10
2019-03-20T18:13:56.822Z,58.50
2019-03-20T18:16:31.883Z,58.50
2019-03-20T18:19:02.501Z,58.70
2019-03-20T18:21:33.112Z,58.70
2019-03-20T18:24:05.701Z,58.50
2019-03-20T18:26:36.700Z,59.20
2019-03-20T18:29:13.575Z,59.40
2019-03-20T18:31:46.244Z,59.90
2019-03-20T18:34:18.061Z,60.80
2019-03-20T18:36:48.710Z,61.70
2019-03-20T18:39:20.652Z,62.40
2019-03-20T18:41:57.620Z,64.10
2019-03-20T18:44:23.531Z,64.50
2019-03-20T18:46:57.238Z,65.90
2019-03-20T18:49:28.617Z,67.50
2019-03-20T18:51:59.368Z,69.30
2019-03-20T18:54:30.434Z,71.40
2019-03-20T18:57:01.766Z,70.30
2019-03-20T18:59:32.729Z,70.10
2019-03-20T19:02:03.791Z,71.30
2019-03-20T19:04:40.268Z,71.40
2019-03-20T19:07:11.303Z,71.50
2019-03-20T19:09:42.763Z,71.70
2019-03-20T19:12:13.520Z,72.70
2019-03-20T19:14:46.156Z,73.90
2019-03-20T19:17:16.771Z,75.30
2019-03-20T19:19:50.018Z,76.60
2019-03-20T19:22:20.699Z,77.40
2019-03-20T19:24:51.350Z,77.90
2019-03-20T19:27:22.020Z,78.70
2019-03-20T19:29:55.656Z,79.50
2019-03-20T19:32:27.331Z,80.70
2019-03-20T19:34:59.839Z,83.80
2019-03-20T19:37:32.766Z,86.00
2019-03-20T19:40:04.713Z,87.90
2019-03-20T19:42:37.071Z,90.00
2019-03-20T19:45:15.159Z,91.30
2019-03-20T19:47:45.908Z,91.40
2019-03-20T19:50:24.833Z,92.00
2019-03-20T19:53:10.615Z,92.70
2019-03-20T19:55:42.260Z,92.90
2019-03-20T19:58:12.785Z,94.90
2019-03-20T20:00:43.413Z,95.10
2019-03-20T20:03:14.034Z,95.70
2019-03-20T20:05:44.646Z,97.20
2019-03-20T20:08:15.798Z,98.50
2019-03-20T20:13:42.997Z,99.90
2019-03-20T20:16:17.306Z,99.90
2019-03-20T20:18:47.955Z,99.90
2019-03-20T20:21:19.011Z,99.90
2019-03-20T20:23:49.556Z,99.90
2019-03-20T20:26:20.248Z,99.90
2019-03-20T20:28:52.476Z,99.90
2019-03-20T20:31:24.342Z,99.90
2019-03-20T20:33:54.933Z,99.90
2019-03-20T20:36:25.916Z,99.90
2019-03-20T20:38:56.604Z,99.90
2019-03-20T20:41:28.449Z,99.90
2019-03-20T20:44:01.566Z,99.90
2019-03-20T20:46:31.755Z,99.90
2019-03-20T20:49:02.396Z,99.90
2019-03-20T20:51:34.526Z,99.90
2019-03-20T20:54:05.185Z,99.90
2019-03-20T20:56:36.209Z,99.90
2019-03-20T20:59:07.244Z,99.90
2019-03-20T21:01:37.933Z,99.90
2019-03-20T21:04:08.547Z,99.90
2019-03-20T21:06:39.169Z,99.90
2019-03-20T21:09:10.197Z,99.90
2019-03-20T21:11:42.270Z,99.90
2019-03-20T21:14:12.911Z,99.90
2019-03-20T21:16:43.559Z,99.90
2019-03-20T21:19:36.584Z,99.90
2019-03-20T21:22:33.081Z,99.90
2019-03-20T21:25:09.586Z,99.90
2019-03-20T21:28:29.235Z,99.90
2019-03-20T21:31:04.291Z,99.90
2019-03-20T21:34:14.213Z,99.90
2019-03-20T21:37:28.624Z,99.90
2019-03-20T21:39:59.120Z,99.90
2019-03-20T21:42:34.184Z,99.90
2019-03-20T21:45:55.155Z,99.90
2019-03-20T21:48:25.697Z,99.90
2019-03-20T21:51:28.251Z,99.90
2019-03-20T21:54:33.630Z,99.90
2019-03-20T21:57:20.975Z,99.90
2019-03-20T22:01:06.815Z,99.90
2019-03-20T22:03:37.321Z,99.90
2019-03-20T22:06:29.188Z,99.90
2019-03-20T22:08:59.781Z,99.90
2019-03-20T22:11:37.569Z,99.90
2019-03-20T22:14:13.753Z,99.90
2019-03-20T22:17:07.723Z,99.90
2019-03-20T22:19:52.875Z,99.90
2019-03-20T22:22:40.953Z,99.90
2019-03-20T22:25:34.096Z,99.90
2019-03-20T22:28:45.419Z,99.90
2019-03-20T22:31:16.053Z,99.90
2019-03-20T22:34:32.447Z,99.90
2019-03-20T22:37:03.153Z,99.90
2019-03-20T22:40:22.044Z,99.90
2019-03-20T22:43:05.358Z,99.90
2019-03-20T22:46:29.432Z,99.90
2019-03-20T22:49:36.889Z,99.90
2019-03-20T22:52:35.997Z,99.90
2019-03-20T22:55:17.521Z,99.90
2019-03-20T22:58:14.483Z,99.90
2019-03-20T23:00:50.898Z,99.90
2019-03-20T23:03:38.407Z,99.90
2019-03-20T23:06:09.273Z,99.90
2019-03-20T23:08:43.011Z,99.90
2019-03-20T23:11:14.050Z,99.90
2019-03-20T23:13:44.490Z,99.90
2019-03-20T23:16:19.853Z,99.90
2019-03-20T23:18:50.316Z,99.90
2019-03-20T23:21:23.644Z,99.90
2019-03-20T23:23:54.543Z,99.90
2019-03-20T23:26:25.231Z,99.90
2019-03-20T23:28:56.298Z,99.90
2019-03-20T23:31:27.259Z,99.90
2019-03-20T23:33:57.671Z,99.90
2019-03-20T23:36:31.402Z,99.90
2019-03-20T23:39:01.943Z,99.90
2019-03-20T23:41:32.476Z,99.90
2019-03-20T23:44:03.277Z,99.90
2019-03-20T23:46:34.452Z,99.90
2019-03-20T23:49:11.581Z,99.90
2019-03-20T23:51:42.283Z,99.90
2019-03-20T23:54:15.374Z,99.90
2019-03-20T23:56:50.292Z,99.90
2019-03-20T23:59:20.762Z,99.90
